createdAt,value
2018-06-20T00:00:31.931Z,1017.90
2018-06-20T00:01:31.902Z,1017.95
2018-06-20T00:02:31.890Z,1017.92
2018-06-20T00:03:31.854Z,1017.91
2018-06-20T00:05:17.773Z,1017.91
2018-06-20T00:06:17.684Z,1017.89
2018-06-20T00:07:17.769Z,1017.85
2018-06-20T00:08:17.620Z,1017.86
2018-06-20T00:09:17.611Z,1017.86
2018-06-20T00:10:17.600Z,1017.84
2018-06-20T00:11:17.568Z,1017.81
2018-06-20T00:12:17.535Z,1017.82
2018-06-20T00:13:17.507Z,1017.83
2018-06-20T00:14:17.484Z,1017.79
2018-06-20T00:15:17.463Z,1017.79
2018-06-20T00:16:17.497Z,1017.79
2018-06-20T00:17:17.414Z,1017.79
2018-06-20T00:18:17.515Z,1017.78
2018-06-20T00:19:17.369Z,1017.70
2018-06-20T00:20:17.435Z,1017.71
2018-06-20T00:21:17.318Z,1017.69
2018-06-20T00:22:17.335Z,1017.73
2018-06-20T00:23:17.278Z,1017.74
2018-06-20T00:24:17.345Z,1017.70
2018-06-20T00:25:17.231Z,1017.71
2018-06-20T00:26:17.260Z,1017.69
2018-06-20T00:27:17.176Z,1017.69
2018-06-20T00:28:17.283Z,1017.66
2018-06-20T00:30:48.603Z,1017.65
2018-06-20T00:32:38.619Z,1017.62
2018-06-20T00:33:38.613Z,1017.64
2018-06-20T00:34:38.539Z,1017.65
2018-06-20T00:35:38.633Z,1017.61
2018-06-20T00:36:38.478Z,1017.63
2018-06-20T00:37:38.536Z,1017.62
2018-06-20T00:38:38.424Z,1017.57
2018-06-20T00:39:38.554Z,1017.55
2018-06-20T00:40:38.375Z,1017.57
2018-06-20T00:41:38.466Z,1017.56
2018-06-20T00:43:24.296Z,1017.53
2018-06-20T00:44:24.079Z,1017.56
2018-06-20T00:45:24.051Z,1017.57
2018-06-20T00:46:24.169Z,1017.57
2018-06-20T00:47:24.011Z,1017.59
2018-06-20T00:48:24.077Z,1017.62
2018-06-20T00:49:23.953Z,1017.60
2018-06-20T00:50:24.079Z,1017.64
2018-06-20T00:51:23.911Z,1017.64
2018-06-20T00:52:23.998Z,1017.62
2018-06-20T00:53:23.869Z,1017.60
2018-06-20T00:54:23.905Z,1017.62
2018-06-20T00:55:23.825Z,1017.61
2018-06-20T00:56:23.918Z,1017.57
2018-06-20T00:57:23.782Z,1017.54
2018-06-20T00:58:23.886Z,1017.54
2018-06-20T00:59:23.724Z,1017.54
2018-06-20T01:00:23.908Z,1017.51
2018-06-20T01:01:23.685Z,1017.54
2018-06-20T01:02:23.815Z,1017.50
2018-06-20T01:03:23.640Z,1017.50
2018-06-20T01:04:23.730Z,1017.52
2018-06-20T01:05:23.586Z,1017.49
2018-06-20T01:06:23.740Z,1017.50
2018-06-20T01:07:23.535Z,1017.49
2018-06-20T01:08:23.649Z,1017.46
2018-06-20T01:09:23.492Z,1017.44
2018-06-20T01:10:23.665Z,1017.39
2018-06-20T01:11:23.455Z,1017.45
2018-06-20T01:12:23.579Z,1017.41
2018-06-20T01:13:23.400Z,1017.41
2018-06-20T01:14:23.594Z,1017.43
2018-06-20T01:15:23.348Z,1017.41
2018-06-20T01:16:23.396Z,1017.42
2018-06-20T01:17:23.304Z,1017.40
2018-06-20T01:18:23.306Z,1017.37
2018-06-20T01:19:23.253Z,1017.41
2018-06-20T01:20:23.326Z,1017.38
2018-06-20T01:21:23.209Z,1017.43
2018-06-20T01:22:23.280Z,1017.46
2018-06-20T01:23:23.159Z,1017.39
2018-06-20T01:24:23.252Z,1017.40
2018-06-20T01:25:23.114Z,1017.44
2018-06-20T01:26:23.162Z,1017.37
2018-06-20T01:27:23.087Z,1017.37
2018-06-20T01:28:23.061Z,1017.37
2018-06-20T01:29:23.046Z,1017.34
2018-06-20T01:30:23.076Z,1017.41
2018-06-20T01:31:22.974Z,1017.39
2018-06-20T01:32:22.987Z,1017.38
2018-06-20T01:33:22.923Z,1017.40
2018-06-20T01:34:22.911Z,1017.37
2018-06-20T01:35:22.879Z,1017.38
2018-06-20T01:36:22.921Z,1017.36
2018-06-20T01:37:22.841Z,1017.34
2018-06-20T01:38:22.920Z,1017.36
2018-06-20T01:39:22.782Z,1017.37
2018-06-20T01:40:22.835Z,1017.34
2018-06-20T01:41:22.745Z,1017.34
2018-06-20T01:42:22.740Z,1017.34
2018-06-20T01:43:22.694Z,1017.33
2018-06-20T01:44:22.762Z,1017.35
2018-06-20T01:45:22.660Z,1017.36
2018-06-20T01:46:22.671Z,1017.35
2018-06-20T01:47:22.599Z,1017.35
2018-06-20T01:48:22.676Z,1017.32
2018-06-20T01:49:22.566Z,1017.37
2018-06-20T01:50:22.584Z,1017.36
2018-06-20T01:51:22.511Z,1017.36
2018-06-20T01:52:22.498Z,1017.38
2018-06-20T01:53:22.459Z,1017.36
2018-06-20T01:54:22.520Z,1017.38
2018-06-20T01:55:22.410Z,1017.36
2018-06-20T01:57:12.708Z,1017.32
2018-06-20T01:58:12.713Z,1017.32
2018-06-20T01:59:12.627Z,1017.34
2018-06-20T02:00:12.619Z,1017.33
2018-06-20T02:01:12.583Z,1017.32
2018-06-20T02:02:12.637Z,1017.27
2018-06-20T02:03:12.539Z,1017.31
2018-06-20T02:04:12.548Z,1017.28
2018-06-20T02:05:12.499Z,1017.26
2018-06-20T02:06:12.561Z,1017.26
2018-06-20T02:07:12.447Z,1017.25
2018-06-20T02:08:12.471Z,1017.24
2018-06-20T02:09:12.410Z,1017.27
2018-06-20T02:10:12.483Z,1017.30
2018-06-20T02:11:12.344Z,1017.29
2018-06-20T02:12:12.398Z,1017.28
2018-06-20T02:13:12.297Z,1017.31
2018-06-20T02:14:12.308Z,1017.28
2018-06-20T02:15:12.246Z,1017.28
2018-06-20T02:16:12.320Z,1017.28
2018-06-20T02:17:12.204Z,1017.23
2018-06-20T02:18:12.237Z,1017.24
2018-06-20T02:19:12.150Z,1017.23
2018-06-20T02:20:12.246Z,1017.22
2018-06-20T02:21:12.110Z,1017.22
2018-06-20T02:22:14.208Z,1017.19
2018-06-20T02:23:12.056Z,1017.18
2018-06-20T02:25:00.311Z,1017.20
2018-06-20T02:26:00.303Z,1017.20
2018-06-20T02:27:00.213Z,1017.19
2018-06-20T02:28:00.212Z,1017.21
2018-06-20T02:29:00.166Z,1017.17
2018-06-20T02:30:00.226Z,1017.19
2018-06-20T02:31:00.140Z,1017.17
2018-06-20T02:32:00.130Z,1017.18
2018-06-20T02:33:00.070Z,1017.16
2018-06-20T02:34:00.163Z,1017.14
2018-06-20T02:35:00.023Z,1017.12
2018-06-20T02:36:00.065Z,1017.12
2018-06-20T02:36:59.982Z,1017.08
2018-06-20T02:38:00.079Z,1017.10
2018-06-20T02:38:59.927Z,1017.03
2018-06-20T02:40:45.545Z,1017.03
2018-06-20T02:41:50.159Z,1017.00
2018-06-20T02:42:45.472Z,1017.00
2018-06-20T02:43:45.465Z,1017.01
2018-06-20T02:44:45.424Z,1017.01
2018-06-20T02:45:45.474Z,1016.97
2018-06-20T02:46:45.369Z,1016.99
2018-06-20T02:47:46.417Z,1016.99
2018-06-20T02:48:45.330Z,1016.98
2018-06-20T02:49:45.404Z,1017.02
2018-06-20T02:50:45.276Z,1017.00
2018-06-20T02:51:45.311Z,1017.00
2018-06-20T02:52:45.267Z,1017.02
2018-06-20T02:53:46.263Z,1017.00
2018-06-20T02:54:45.186Z,1017.01
2018-06-20T02:55:45.236Z,1016.94
2018-06-20T02:56:45.137Z,1017.02
2018-06-20T02:57:45.148Z,1016.98
2018-06-20T02:58:45.086Z,1016.96
2018-06-20T02:59:46.192Z,1016.97
2018-06-20T03:00:45.047Z,1016.96
2018-06-20T03:02:30.823Z,1016.99
2018-06-20T03:03:30.845Z,1016.95
2018-06-20T03:04:30.754Z,1016.96
2018-06-20T03:05:31.806Z,1016.93
2018-06-20T03:06:30.715Z,1016.96
2018-06-20T03:07:30.767Z,1016.93
2018-06-20T03:08:30.662Z,1016.95
2018-06-20T03:09:30.679Z,1016.95
2018-06-20T03:10:30.608Z,1016.96
2018-06-20T03:11:30.692Z,1016.90
2018-06-20T03:12:30.556Z,1016.87
2018-06-20T03:13:31.621Z,1016.93
2018-06-20T03:14:30.514Z,1016.90
2018-06-20T03:16:18.550Z,1016.92
2018-06-20T03:17:18.538Z,1016.88
2018-06-20T03:18:18.450Z,1016.88
2018-06-20T03:19:20.496Z,1016.93
2018-06-20T03:20:18.411Z,1016.90
2018-06-20T03:21:18.463Z,1016.90
2018-06-20T03:22:18.355Z,1016.90
2018-06-20T03:23:18.379Z,1016.92
2018-06-20T03:24:18.314Z,1016.87
2018-06-20T03:25:18.388Z,1016.88
2018-06-20T03:26:18.270Z,1016.86
2018-06-20T03:27:18.321Z,1016.86
2018-06-20T03:28:18.210Z,1016.83
2018-06-20T03:29:23.952Z,1016.83
2018-06-20T03:30:18.172Z,1016.85
2018-06-20T03:31:18.230Z,1016.90
2018-06-20T03:32:18.125Z,1016.85
2018-06-20T03:33:18.138Z,1016.85
2018-06-20T03:35:10.078Z,1016.84
2018-06-20T03:36:10.137Z,1016.79
2018-06-20T03:37:09.995Z,1016.78
2018-06-20T03:38:10.125Z,1016.72
2018-06-20T03:39:09.939Z,1016.76
2018-06-20T03:40:10.925Z,1016.77
2018-06-20T03:41:09.891Z,1016.74
2018-06-20T03:42:10.011Z,1016.75
2018-06-20T03:43:09.851Z,1016.76
2018-06-20T03:44:11.050Z,1016.77
2018-06-20T03:45:09.792Z,1016.75
2018-06-20T03:46:09.782Z,1016.77
2018-06-20T03:47:09.942Z,1016.77
2018-06-20T03:48:09.715Z,1016.77
2018-06-20T03:49:09.858Z,1016.76
2018-06-20T03:50:09.673Z,1016.78
2018-06-20T03:51:10.681Z,1016.82
2018-06-20T03:52:09.626Z,1016.81
2018-06-20T03:53:09.679Z,1016.79
2018-06-20T03:54:09.580Z,1016.80
2018-06-20T03:55:09.689Z,1016.82
2018-06-20T03:56:09.531Z,1016.76
2018-06-20T03:57:09.703Z,1016.80
2018-06-20T03:58:09.484Z,1016.78
2018-06-20T03:59:10.541Z,1016.78
2018-06-20T04:00:09.517Z,1016.74
2018-06-20T04:01:11.677Z,1016.77
2018-06-20T04:02:09.658Z,1016.75
2018-06-20T04:03:09.697Z,1016.79
2018-06-20T04:04:09.341Z,1016.77
2018-06-20T04:05:09.398Z,1016.77
2018-06-20T04:06:09.293Z,1016.74
2018-06-20T04:07:09.269Z,1016.80
2018-06-20T04:08:09.238Z,1016.76
2018-06-20T04:09:09.227Z,1016.75
2018-06-20T04:10:09.208Z,1016.78
2018-06-20T04:11:09.192Z,1016.72
2018-06-20T04:12:09.230Z,1016.77
2018-06-20T04:13:09.142Z,1016.76
2018-06-20T04:14:09.262Z,1016.75
2018-06-20T04:15:09.082Z,1016.74
2018-06-20T04:16:09.057Z,1016.76
2018-06-20T04:17:09.023Z,1016.73
2018-06-20T04:18:09.006Z,1016.78
2018-06-20T04:19:55.063Z,1016.76
2018-06-20T04:20:55.002Z,1016.76
2018-06-20T04:21:55.010Z,1016.75
2018-06-20T04:22:54.949Z,1016.77
2018-06-20T04:23:54.929Z,1016.77
2018-06-20T04:24:54.901Z,1016.76
2018-06-20T04:25:54.890Z,1016.73
2018-06-20T04:26:54.865Z,1016.73
2018-06-20T04:27:54.841Z,1016.76
2018-06-20T04:28:54.917Z,1016.75
2018-06-20T04:29:54.787Z,1016.66
2018-06-20T04:30:54.780Z,1016.67
2018-06-20T04:31:54.729Z,1016.73
2018-06-20T04:32:54.720Z,1016.68
2018-06-20T04:33:54.687Z,1016.70
2018-06-20T04:34:54.712Z,1016.69
2018-06-20T04:35:54.638Z,1016.69
2018-06-20T04:36:54.765Z,1016.72
2018-06-20T04:37:54.595Z,1016.70
2018-06-20T04:38:54.569Z,1016.67
2018-06-20T04:39:54.563Z,1016.63
2018-06-20T04:40:54.542Z,1016.66
2018-06-20T04:41:54.503Z,1016.66
2018-06-20T04:42:54.477Z,1016.65
2018-06-20T04:43:54.449Z,1016.64
2018-06-20T04:44:54.424Z,1016.64
2018-06-20T04:45:54.430Z,1016.64
2018-06-20T04:46:54.384Z,1016.68
2018-06-20T04:47:54.366Z,1016.68
2018-06-20T04:48:54.393Z,1016.64
2018-06-20T04:49:54.306Z,1016.61
2018-06-20T04:50:54.288Z,1016.60
2018-06-20T04:51:54.265Z,1016.61
2018-06-20T04:52:54.248Z,1016.59
2018-06-20T04:53:54.244Z,1016.58
2018-06-20T04:54:54.190Z,1016.62
2018-06-20T04:55:54.169Z,1016.60
2018-06-20T04:56:54.146Z,1016.61
2018-06-20T04:57:54.126Z,1016.57
2018-06-20T04:58:54.096Z,1016.56
2018-06-20T04:59:54.087Z,1016.62
2018-06-20T05:00:54.188Z,1016.59
2018-06-20T05:01:54.032Z,1016.58
2018-06-20T05:02:54.086Z,1016.59
2018-06-20T05:03:53.984Z,1016.57
2018-06-20T05:04:54.129Z,1016.56
2018-06-20T05:05:53.953Z,1016.59
2018-06-20T05:06:54.009Z,1016.58
2018-06-20T05:07:53.913Z,1016.55
2018-06-20T05:08:54.938Z,1016.58
2018-06-20T05:09:53.843Z,1016.53
2018-06-20T05:10:39.650Z,1016.50
2018-06-20T05:11:39.450Z,1016.52
2018-06-20T05:12:39.510Z,1016.51
2018-06-20T05:13:39.387Z,1016.54
2018-06-20T05:14:39.535Z,1016.52
2018-06-20T05:15:39.342Z,1016.55
2018-06-20T05:16:39.449Z,1016.51
2018-06-20T05:17:39.297Z,1016.50
2018-06-20T05:18:39.343Z,1016.49
2018-06-20T05:19:39.254Z,1016.48
2018-06-20T05:20:39.385Z,1016.51
2018-06-20T05:21:39.212Z,1016.53
2018-06-20T05:22:39.330Z,1016.51
2018-06-20T05:23:39.172Z,1016.49
2018-06-20T05:24:39.295Z,1016.49
2018-06-20T05:25:39.114Z,1016.51
2018-06-20T05:26:39.204Z,1016.49
2018-06-20T05:27:39.091Z,1016.51
2018-06-20T05:28:39.045Z,1016.49
2018-06-20T05:29:40.280Z,1016.52
2018-06-20T05:30:39.003Z,1016.49
2018-06-20T05:31:39.124Z,1016.54
2018-06-20T05:32:24.689Z,1016.52
2018-06-20T05:33:24.679Z,1016.53
2018-06-20T05:34:24.627Z,1016.53
2018-06-20T05:35:24.698Z,1016.58
2018-06-20T05:36:24.551Z,1016.52
2018-06-20T05:37:25.644Z,1016.51
2018-06-20T05:38:24.487Z,1016.52
2018-06-20T05:39:25.542Z,1016.49
2018-06-20T05:40:24.469Z,1016.52
2018-06-20T05:41:26.501Z,1016.48
2018-06-20T05:42:24.397Z,1016.53
2018-06-20T05:43:25.460Z,1016.56
2018-06-20T05:44:24.359Z,1016.54
2018-06-20T05:45:24.468Z,1016.51
2018-06-20T05:46:24.300Z,1016.47
2018-06-20T05:47:24.364Z,1016.55
2018-06-20T05:48:24.276Z,1016.52
2018-06-20T05:49:24.380Z,1016.50
2018-06-20T05:50:24.218Z,1016.55
2018-06-20T05:51:24.286Z,1016.56
2018-06-20T05:52:24.167Z,1016.52
2018-06-20T05:53:25.221Z,1016.51
2018-06-20T05:54:24.129Z,1016.55
2018-06-20T05:55:24.212Z,1016.58
2018-06-20T05:56:24.075Z,1016.57
2018-06-20T05:57:24.121Z,1016.57
2018-06-20T05:58:24.060Z,1016.59
2018-06-20T06:00:14.105Z,1016.63
2018-06-20T06:01:15.140Z,1016.61
2018-06-20T06:02:14.014Z,1016.60
2018-06-20T06:03:15.159Z,1016.60
2018-06-20T06:04:13.980Z,1016.57
2018-06-20T06:05:15.096Z,1016.59
2018-06-20T06:06:13.924Z,1016.58
2018-06-20T06:07:14.986Z,1016.55
2018-06-20T06:08:13.876Z,1016.57
2018-06-20T06:09:15.041Z,1016.56
2018-06-20T06:10:13.841Z,1016.56
2018-06-20T06:11:13.807Z,1016.60
2018-06-20T06:12:13.913Z,1016.59
2018-06-20T06:13:13.807Z,1016.60
2018-06-20T06:14:14.814Z,1016.63
2018-06-20T06:15:13.724Z,1016.65
2018-06-20T06:16:13.814Z,1016.64
2018-06-20T06:17:13.699Z,1016.61
2018-06-20T06:18:13.726Z,1016.61
2018-06-20T06:19:13.625Z,1016.63
2018-06-20T06:20:13.754Z,1016.65
2018-06-20T06:21:13.580Z,1016.60
2018-06-20T06:22:13.640Z,1016.63
2018-06-20T06:24:00.180Z,1016.64
2018-06-20T06:24:59.088Z,1016.61
2018-06-20T06:26:00.153Z,1016.63
2018-06-20T06:26:59.010Z,1016.64
2018-06-20T06:28:01.114Z,1016.63
2018-06-20T06:28:58.960Z,1016.68
2018-06-20T06:29:58.944Z,1016.63
2018-06-20T06:30:58.909Z,1016.62
2018-06-20T06:31:58.976Z,1016.63
2018-06-20T06:32:58.869Z,1016.61
2018-06-20T06:33:58.976Z,1016.61
2018-06-20T06:34:58.825Z,1016.61
2018-06-20T06:35:58.878Z,1016.55
2018-06-20T06:36:58.833Z,1016.56
2018-06-20T06:37:58.764Z,1016.57
2018-06-20T06:38:58.728Z,1016.58
2018-06-20T06:39:58.710Z,1016.60
2018-06-20T06:40:58.813Z,1016.58
2018-06-20T06:41:58.652Z,1016.56
2018-06-20T06:42:58.632Z,1016.59
2018-06-20T06:43:58.615Z,1016.61
2018-06-20T06:44:58.585Z,1016.56
2018-06-20T06:45:59.670Z,1016.63
2018-06-20T06:46:58.537Z,1016.65
2018-06-20T06:47:58.509Z,1016.69
2018-06-20T06:48:58.503Z,1016.67
2018-06-20T06:49:58.569Z,1016.66
2018-06-20T06:50:58.462Z,1016.65
2018-06-20T06:51:58.420Z,1016.66
2018-06-20T06:52:58.478Z,1016.61
2018-06-20T06:53:58.417Z,1016.60
2018-06-20T06:54:58.352Z,1016.61
2018-06-20T06:55:58.323Z,1016.62
2018-06-20T06:56:58.321Z,1016.60
2018-06-20T06:57:58.286Z,1016.61
2018-06-20T06:58:58.263Z,1016.61
2018-06-20T06:59:58.254Z,1016.59
2018-06-20T07:01:48.402Z,1016.59
2018-06-20T07:02:48.344Z,1016.57
2018-06-20T07:03:48.326Z,1016.65
2018-06-20T07:04:48.301Z,1016.60
2018-06-20T07:05:48.286Z,1016.60
2018-06-20T07:06:48.249Z,1016.58
2018-06-20T07:07:48.225Z,1016.57
2018-06-20T07:08:48.203Z,1016.59
2018-06-20T07:09:48.178Z,1016.53
2018-06-20T07:10:48.186Z,1016.49
2018-06-20T07:11:53.158Z,1016.56
2018-06-20T07:12:48.106Z,1016.54
2018-06-20T07:13:48.201Z,1016.51
2018-06-20T07:14:48.093Z,1016.51
2018-06-20T07:15:48.218Z,1016.54
2018-06-20T07:16:48.020Z,1016.55
2018-06-20T07:18:33.911Z,1016.57
2018-06-20T07:19:33.832Z,1016.53
2018-06-20T07:20:33.811Z,1016.54
2018-06-20T07:21:33.796Z,1016.54
2018-06-20T07:22:33.804Z,1016.53
2018-06-20T07:23:33.740Z,1016.54
2018-06-20T07:24:33.763Z,1016.54
2018-06-20T07:25:33.734Z,1016.50
2018-06-20T07:26:33.882Z,1016.47
2018-06-20T07:28:19.224Z,1016.48
2018-06-20T07:29:19.201Z,1016.45
2018-06-20T07:30:19.211Z,1016.43
2018-06-20T07:31:19.133Z,1016.42
2018-06-20T07:32:19.114Z,1016.45
2018-06-20T07:33:19.080Z,1016.52
2018-06-20T07:34:19.045Z,1016.48
2018-06-20T07:36:04.700Z,1016.49
2018-06-20T07:37:04.610Z,1016.46
2018-06-20T07:38:04.556Z,1016.49
2018-06-20T07:39:04.543Z,1016.48
2018-06-20T07:40:04.492Z,1016.49
2018-06-20T07:41:04.473Z,1016.49
2018-06-20T07:42:04.522Z,1016.50
2018-06-20T07:43:04.464Z,1016.49
2018-06-20T07:44:04.586Z,1016.49
2018-06-20T07:45:04.428Z,1016.48
2018-06-20T07:46:04.384Z,1016.51
2018-06-20T07:47:59.755Z,1016.48
2018-06-20T07:48:59.532Z,1016.52
2018-06-20T07:49:59.507Z,1016.52
2018-06-20T07:50:59.483Z,1016.52
2018-06-20T07:51:59.569Z,1016.50
2018-06-20T07:52:59.430Z,1016.49
2018-06-20T07:53:59.430Z,1016.51
2018-06-20T07:54:59.406Z,1016.50
2018-06-20T07:55:59.386Z,1016.40
2018-06-20T07:56:59.335Z,1016.42
2018-06-20T07:57:59.327Z,1016.36
2018-06-20T07:58:59.311Z,1016.38
2018-06-20T07:59:59.286Z,1016.32
2018-06-20T08:01:44.828Z,1016.33
2018-06-20T08:02:44.786Z,1016.29
2018-06-20T08:03:44.707Z,1016.31
2018-06-20T08:04:44.685Z,1016.37
2018-06-20T08:05:44.660Z,1016.34
2018-06-20T08:06:44.643Z,1016.33
2018-06-20T08:07:44.611Z,1016.32
2018-06-20T08:08:44.651Z,1016.34
2018-06-20T08:10:30.748Z,1016.36
2018-06-20T08:11:30.660Z,1016.33
2018-06-20T08:12:30.686Z,1016.29
2018-06-20T08:13:30.609Z,1016.32
2018-06-20T08:14:30.609Z,1016.29
2018-06-20T08:15:30.673Z,1016.31
2018-06-20T08:16:30.535Z,1016.29
2018-06-20T08:17:30.564Z,1016.30
2018-06-20T08:18:30.489Z,1016.33
2018-06-20T08:19:30.477Z,1016.28
2018-06-20T08:20:30.449Z,1016.25
2018-06-20T08:21:30.436Z,1016.22
2018-06-20T08:22:30.400Z,1016.26
2018-06-20T08:23:30.389Z,1016.21
2018-06-20T08:24:30.346Z,1016.25
2018-06-20T08:25:30.415Z,1016.23
2018-06-20T08:26:30.314Z,1016.26
2018-06-20T08:27:30.295Z,1016.28
2018-06-20T08:28:30.258Z,1016.24
2018-06-20T08:30:16.314Z,1016.28
2018-06-20T08:31:16.257Z,1016.25
2018-06-20T08:32:16.237Z,1016.23
2018-06-20T08:33:16.218Z,1016.22
2018-06-20T08:34:16.181Z,1016.25
2018-06-20T08:35:16.242Z,1016.30
2018-06-20T08:36:16.138Z,1016.31
2018-06-20T08:37:16.186Z,1016.27
2018-06-20T08:38:16.084Z,1016.28
2018-06-20T08:39:16.075Z,1016.31
2018-06-20T08:40:16.046Z,1016.27
2018-06-20T08:41:16.025Z,1016.27
2018-06-20T08:42:16.003Z,1016.30
2018-06-20T08:43:15.978Z,1016.27
2018-06-20T08:44:15.956Z,1016.28
2018-06-20T08:45:15.941Z,1016.26
2018-06-20T08:46:15.917Z,1016.27
2018-06-20T08:47:15.889Z,1016.28
2018-06-20T08:48:15.916Z,1016.26
2018-06-20T08:49:15.850Z,1016.27
2018-06-20T08:50:16.851Z,1016.27
2018-06-20T08:52:02.152Z,1016.29
2018-06-20T08:53:02.061Z,1016.28
2018-06-20T08:54:03.048Z,1016.25
2018-06-20T08:55:02.009Z,1016.26
2018-06-20T08:56:01.984Z,1016.23
2018-06-20T08:56:48.773Z,1016.29
2018-06-20T08:57:48.689Z,1016.26
2018-06-20T08:58:48.754Z,1016.24
2018-06-20T08:59:48.634Z,1016.27
2018-06-20T09:00:48.600Z,1016.25
2018-06-20T09:01:48.673Z,1016.26
2018-06-20T09:02:48.562Z,1016.20
2018-06-20T09:03:48.688Z,1016.23
2018-06-20T09:04:48.519Z,1016.21
2018-06-20T09:05:48.501Z,1016.18
2018-06-20T09:06:48.467Z,1016.16
2018-06-20T09:07:48.451Z,1016.15
2018-06-20T09:08:48.422Z,1016.17
2018-06-20T09:09:48.391Z,1016.16
2018-06-20T09:10:48.380Z,1016.14
2018-06-20T09:11:48.348Z,1016.14
2018-06-20T09:12:48.325Z,1016.14
2018-06-20T09:13:48.309Z,1016.16
2018-06-20T09:14:48.276Z,1016.17
2018-06-20T09:15:48.367Z,1016.15
2018-06-20T09:16:48.228Z,1016.14
2018-06-20T09:17:48.375Z,1016.12
2018-06-20T09:19:34.090Z,1016.14
2018-06-20T09:20:33.993Z,1016.06
2018-06-20T09:21:33.978Z,1016.03
2018-06-20T09:22:33.956Z,1016.06
2018-06-20T09:23:34.078Z,1016.01
2018-06-20T09:24:33.882Z,1016.06
2018-06-20T09:25:33.986Z,1016.06
2018-06-20T09:26:33.837Z,1016.02
2018-06-20T09:27:33.918Z,1016.01
2018-06-20T09:28:33.790Z,1016.03
2018-06-20T09:29:33.812Z,1016.04
2018-06-20T09:30:33.741Z,1016.06
2018-06-20T09:31:33.830Z,1016.01
2018-06-20T09:32:33.693Z,1016.00
2018-06-20T09:33:33.702Z,1016.04
2018-06-20T09:34:33.740Z,1016.01
2018-06-20T09:35:33.620Z,1015.98
2018-06-20T09:36:33.648Z,1015.95
2018-06-20T09:37:33.584Z,1015.97
2018-06-20T09:38:33.609Z,1016.03
2018-06-20T09:39:33.596Z,1016.00
2018-06-20T09:40:33.511Z,1016.00
2018-06-20T09:41:33.486Z,1016.01
2018-06-20T09:42:33.480Z,1015.90
2018-06-20T09:43:19.063Z,1015.97
2018-06-20T09:44:19.010Z,1015.91
2018-06-20T09:45:18.974Z,1015.90
2018-06-20T09:46:18.972Z,1015.90
2018-06-20T09:47:18.923Z,1015.94
2018-06-20T09:48:18.899Z,1015.95
2018-06-20T09:49:18.898Z,1015.92
2018-06-20T09:50:18.873Z,1015.91
2018-06-20T09:51:18.856Z,1015.92
2018-06-20T09:52:18.913Z,1015.90
2018-06-20T09:53:18.777Z,1015.93
2018-06-20T09:54:18.821Z,1015.92
2018-06-20T09:55:18.725Z,1015.91
2018-06-20T09:56:18.705Z,1015.90
2018-06-20T09:57:18.686Z,1015.85
2018-06-20T09:58:18.762Z,1015.87
2018-06-20T10:00:04.979Z,1015.83
2018-06-20T10:01:04.879Z,1015.83
2018-06-20T10:02:05.004Z,1015.80
2018-06-20T10:03:04.838Z,1015.77
2018-06-20T10:04:04.806Z,1015.80
2018-06-20T10:05:05.896Z,1015.80
2018-06-20T10:06:04.758Z,1015.79
2018-06-20T10:07:04.796Z,1015.79
2018-06-20T10:08:04.716Z,1015.83
2018-06-20T10:09:04.684Z,1015.81
2018-06-20T10:10:04.676Z,1015.83
2018-06-20T10:11:04.705Z,1015.78
2018-06-20T10:12:04.710Z,1015.80
2018-06-20T10:13:04.619Z,1015.80
2018-06-20T10:14:04.588Z,1015.81
2018-06-20T10:15:51.054Z,1015.79
2018-06-20T10:16:51.056Z,1015.73
2018-06-20T10:17:50.964Z,1015.68
2018-06-20T10:18:50.981Z,1015.74
2018-06-20T10:19:50.918Z,1015.78
2018-06-20T10:20:50.998Z,1015.81
2018-06-20T10:21:50.882Z,1015.74
2018-06-20T10:22:50.919Z,1015.76
2018-06-20T10:23:50.841Z,1015.69
2018-06-20T10:24:50.914Z,1015.76
2018-06-20T10:25:50.777Z,1015.69
2018-06-20T10:26:50.823Z,1015.72
2018-06-20T10:27:50.735Z,1015.69
2018-06-20T10:28:50.718Z,1015.65
2018-06-20T10:29:50.750Z,1015.68
2018-06-20T10:30:50.668Z,1015.65
2018-06-20T10:31:50.788Z,1015.61
2018-06-20T10:32:50.629Z,1015.61
2018-06-20T10:33:50.685Z,1015.57
2018-06-20T10:34:50.572Z,1015.61
2018-06-20T10:35:50.567Z,1015.59
2018-06-20T10:36:50.515Z,1015.53
2018-06-20T10:37:50.503Z,1015.53
2018-06-20T10:38:50.508Z,1015.54
2018-06-20T10:39:50.512Z,1015.52
2018-06-20T10:40:51.535Z,1015.55
2018-06-20T10:41:50.409Z,1015.50
2018-06-20T10:42:50.429Z,1015.53
2018-06-20T10:43:50.373Z,1015.48
2018-06-20T10:44:50.434Z,1015.48
2018-06-20T10:45:50.311Z,1015.47
2018-06-20T10:46:50.358Z,1015.43
2018-06-20T10:48:36.174Z,1015.36
2018-06-20T10:49:36.094Z,1015.42
2018-06-20T10:50:36.049Z,1015.35
2018-06-20T10:51:36.017Z,1015.32
2018-06-20T10:52:35.997Z,1015.35
2018-06-20T10:53:35.999Z,1015.30
2018-06-20T10:54:35.987Z,1015.30
2018-06-20T10:55:35.946Z,1015.28
2018-06-20T10:56:35.977Z,1015.27
2018-06-20T10:57:35.879Z,1015.27
2018-06-20T10:58:36.936Z,1015.30
2018-06-20T10:59:35.862Z,1015.32
2018-06-20T11:00:35.837Z,1015.24
2018-06-20T11:01:35.825Z,1015.26
2018-06-20T11:02:35.768Z,1015.28
2018-06-20T11:03:35.826Z,1015.31
2018-06-20T11:04:35.743Z,1015.28
2018-06-20T11:05:36.045Z,1015.24
2018-06-20T11:06:36.010Z,1015.28
2018-06-20T11:07:35.757Z,1015.20
2018-06-20T11:08:35.809Z,1015.15
2018-06-20T11:09:36.002Z,1015.17
2018-06-20T11:10:35.900Z,1015.19
2018-06-20T11:11:35.893Z,1015.14
2018-06-20T11:12:35.585Z,1015.12
2018-06-20T11:13:35.521Z,1015.13
2018-06-20T11:14:36.517Z,1015.12
2018-06-20T11:15:35.484Z,1015.09
2018-06-20T11:16:35.458Z,1015.08
2018-06-20T11:17:35.414Z,1015.06
2018-06-20T11:18:35.451Z,1015.08
2018-06-20T11:19:35.391Z,1015.03
2018-06-20T11:20:36.629Z,1015.03
2018-06-20T11:21:35.379Z,1015.02
2018-06-20T11:23:20.823Z,1014.99
2018-06-20T11:24:20.814Z,1015.00
2018-06-20T11:25:20.723Z,1014.94
2018-06-20T11:26:20.745Z,1014.95
2018-06-20T11:27:20.682Z,1014.92
2018-06-20T11:28:20.664Z,1014.89
2018-06-20T11:29:20.800Z,1014.95
2018-06-20T11:30:20.631Z,1014.86
2018-06-20T11:31:20.665Z,1014.92
2018-06-20T11:32:20.557Z,1014.90
2018-06-20T11:33:20.580Z,1014.90
2018-06-20T11:34:20.515Z,1014.88
2018-06-20T11:35:20.498Z,1014.85
2018-06-20T11:36:20.546Z,1014.86
2018-06-20T11:37:20.449Z,1014.87
2018-06-20T11:38:20.475Z,1014.88
2018-06-20T11:39:20.405Z,1014.83
2018-06-20T11:40:20.469Z,1014.86
2018-06-20T11:41:20.351Z,1014.75
2018-06-20T11:42:20.387Z,1014.70
2018-06-20T11:43:20.308Z,1014.73
2018-06-20T11:44:20.398Z,1014.74
2018-06-20T11:45:20.263Z,1014.71
2018-06-20T11:46:20.251Z,1014.64
2018-06-20T11:47:20.227Z,1014.65
2018-06-20T11:48:20.195Z,1014.66
2018-06-20T11:49:20.171Z,1014.62
2018-06-20T11:50:20.157Z,1014.60
2018-06-20T11:51:20.117Z,1014.62
2018-06-20T11:52:20.115Z,1014.55
2018-06-20T11:53:20.104Z,1014.56
2018-06-20T11:54:20.050Z,1014.62
2018-06-20T11:55:20.035Z,1014.51
2018-06-20T11:56:20.006Z,1014.51
2018-06-20T11:57:20.050Z,1014.46
2018-06-20T11:58:19.976Z,1014.47
2018-06-20T11:59:19.945Z,1014.55
2018-06-20T12:00:19.925Z,1014.53
2018-06-20T12:01:19.895Z,1014.51
2018-06-20T12:02:19.889Z,1014.54
2018-06-20T12:03:19.869Z,1014.51
2018-06-20T12:04:20.833Z,1014.48
2018-06-20T12:05:19.825Z,1014.45
2018-06-20T12:06:19.783Z,1014.41
2018-06-20T12:07:19.756Z,1014.48
2018-06-20T12:08:19.743Z,1014.51
2018-06-20T12:09:19.710Z,1014.47
2018-06-20T12:10:19.692Z,1014.48
2018-06-20T12:11:19.680Z,1014.48
2018-06-20T12:12:19.653Z,1014.48
2018-06-20T12:13:19.614Z,1014.43
2018-06-20T12:14:19.631Z,1014.38
2018-06-20T12:15:19.592Z,1014.37
2018-06-20T12:16:19.565Z,1014.37
2018-06-20T12:17:19.522Z,1014.28
2018-06-20T12:18:19.539Z,1014.31
2018-06-20T12:19:19.493Z,1014.23
2018-06-20T12:20:19.475Z,1014.31
2018-06-20T12:21:19.463Z,1014.31
2018-06-20T12:22:19.430Z,1014.30
2018-06-20T12:23:19.391Z,1014.23
2018-06-20T12:24:19.371Z,1014.21
2018-06-20T12:25:19.361Z,1014.24
2018-06-20T12:26:19.346Z,1014.17